sensor_id;sensor_type;location;lat;lon;timestamp;P1;durP1;ratioP1;P2;durP2;ratioP2
27313;SDS011;14800;48.174;9.798;2024-03-08T00:00:34;26.58;;;16.25;;
27313;SDS011;14800;48.174;9.798;2024-03-08T00:02:59;30.02;;;16.50;;
27313;SDS011;14800;48.174;9.798;2024-03-08T00:05:28;27.60;;;17.08;;
27313;SDS011;14800;48.174;9.798;2024-03-08T00:07:53;30.55;;;17.13;;
27313;SDS011;14800;48.174;9.798;2024-03-08T00:10:19;30.27;;;17.17;;
27313;SDS011;14800;48.174;9.798;2024-03-08T00:12:46;30.13;;;17.27;;
27313;SDS011;14800;48.174;9.798;2024-03-08T00:15:15;28.33;;;16.88;;
27313;SDS011;14800;48.174;9.798;2024-03-08T00:17:42;29.90;;;17.88;;
27313;SDS011;14800;48.174;9.798;2024-03-08T00:20:08;28.55;;;17.15;;
27313;SDS011;14800;48.174;9.798;2024-03-08T00:22:34;31.00;;;16.98;;
27313;SDS011;14800;48.174;9.798;2024-03-08T00:25:01;31.58;;;17.33;;
27313;SDS011;14800;48.174;9.798;2024-03-08T00:27:27;30.58;;;17.55;;
27313;SDS011;14800;48.174;9.798;2024-03-08T00:29:56;27.42;;;16.55;;
27313;SDS011;14800;48.174;9.798;2024-03-08T00:32:25;27.30;;;17.00;;
27313;SDS011;14800;48.174;9.798;2024-03-08T00:34:52;31.58;;;18.13;;
27313;SDS011;14800;48.174;9.798;2024-03-08T00:37:21;30.60;;;17.33;;
27313;SDS011;14800;48.174;9.798;2024-03-08T00:39:47;33.78;;;17.50;;
27313;SDS011;14800;48.174;9.798;2024-03-08T00:42:14;29.48;;;17.63;;
27313;SDS011;14800;48.174;9.798;2024-03-08T00:44:40;32.20;;;18.30;;
27313;SDS011;14800;48.174;9.798;2024-03-08T00:47:06;32.20;;;17.90;;
27313;SDS011;14800;48.174;9.798;2024-03-08T00:49:32;29.73;;;16.70;;
27313;SDS011;14800;48.174;9.798;2024-03-08T00:51:57;33.17;;;18.48;;
27313;SDS011;14800;48.174;9.798;2024-03-08T00:54:23;29.05;;;17.45;;
27313;SDS011;14800;48.174;9.798;2024-03-08T00:56:48;31.73;;;18.60;;
27313;SDS011;14800;48.174;9.798;2024-03-08T00:59:14;31.45;;;18.02;;
27313;SDS011;14800;48.174;9.798;2024-03-08T01:01:40;30.80;;;17.65;;
27313;SDS011;14800;48.174;9.798;2024-03-08T01:04:06;33.88;;;18.25;;
27313;SDS011;14800;48.174;9.798;2024-03-08T01:06:32;32.72;;;18.45;;
27313;SDS011;14800;48.174;9.798;2024-03-08T01:08:58;32.40;;;18.15;;
27313;SDS011;14800;48.174;9.798;2024-03-08T01:11:24;32.30;;;17.73;;
27313;SDS011;14800;48.174;9.798;2024-03-08T01:13:50;30.83;;;18.48;;
27313;SDS011;14800;48.174;9.798;2024-03-08T01:16:15;30.05;;;17.15;;
27313;SDS011;14800;48.174;9.798;2024-03-08T01:18:42;34.55;;;18.90;;
27313;SDS011;14800;48.174;9.798;2024-03-08T01:21:08;31.08;;;17.88;;
27313;SDS011;14800;48.174;9.798;2024-03-08T01:23:34;32.85;;;18.65;;
27313;SDS011;14800;48.174;9.798;2024-03-08T01:26:00;31.17;;;17.65;;
27313;SDS011;14800;48.174;9.798;2024-03-08T01:28:27;33.10;;;18.42;;
27313;SDS011;14800;48.174;9.798;2024-03-08T01:30:53;33.25;;;18.25;;
27313;SDS011;14800;48.174;9.798;2024-03-08T01:33:25;32.45;;;18.48;;
27313;SDS011;14800;48.174;9.798;2024-03-08T01:35:52;31.98;;;18.10;;
27313;SDS011;14800;48.174;9.798;2024-03-08T01:38:18;33.63;;;18.77;;
27313;SDS011;14800;48.174;9.798;2024-03-08T01:40:44;35.67;;;19.17;;
27313;SDS011;14800;48.174;9.798;2024-03-08T01:43:19;33.60;;;18.77;;
27313;SDS011;14800;48.174;9.798;2024-03-08T01:45:57;30.67;;;17.85;;
27313;SDS011;14800;48.174;9.798;2024-03-08T01:48:26;38.25;;;18.67;;
27313;SDS011;14800;48.174;9.798;2024-03-08T01:50:53;35.78;;;18.77;;
27313;SDS011;14800;48.174;9.798;2024-03-08T01:53:20;32.78;;;19.23;;
27313;SDS011;14800;48.174;9.798;2024-03-08T01:55:46;32.53;;;18.27;;
27313;SDS011;14800;48.174;9.798;2024-03-08T01:58:13;31.77;;;17.85;;
27313;SDS011;14800;48.174;9.798;2024-03-08T02:00:43;34.17;;;18.55;;
27313;SDS011;14800;48.174;9.798;2024-03-08T02:03:10;33.03;;;17.80;;
27313;SDS011;14800;48.174;9.798;2024-03-08T02:05:36;32.20;;;18.05;;
27313;SDS011;14800;48.174;9.798;2024-03-08T02:08:03;32.08;;;18.58;;
27313;SDS011;14800;48.174;9.798;2024-03-08T02:10:32;36.60;;;19.55;;
27313;SDS011;14800;48.174;9.798;2024-03-08T02:13:01;32.83;;;18.33;;
27313;SDS011;14800;48.174;9.798;2024-03-08T02:15:49;33.83;;;18.90;;
27313;SDS011;14800;48.174;9.798;2024-03-08T02:18:19;32.78;;;18.08;;
27313;SDS011;14800;48.174;9.798;2024-03-08T02:20:47;32.92;;;18.08;;
27313;SDS011;14800;48.174;9.798;2024-03-08T02:23:22;30.40;;;17.25;;
27313;SDS011;14800;48.174;9.798;2024-03-08T02:25:52;33.22;;;18.77;;
27313;SDS011;14800;48.174;9.798;2024-03-08T02:28:18;35.78;;;19.13;;
27313;SDS011;14800;48.174;9.798;2024-03-08T02:30:45;32.92;;;18.58;;
27313;SDS011;14800;48.174;9.798;2024-03-08T02:33:20;30.88;;;18.60;;
27313;SDS011;14800;48.174;9.798;2024-03-08T02:35:47;33.72;;;18.92;;
27313;SDS011;14800;48.174;9.798;2024-03-08T02:38:17;35.60;;;18.65;;
27313;SDS011;14800;48.174;9.798;2024-03-08T02:40:48;32.20;;;18.37;;
27313;SDS011;14800;48.174;9.798;2024-03-08T02:43:16;33.63;;;18.85;;
27313;SDS011;14800;48.174;9.798;2024-03-08T02:45:47;31.98;;;18.48;;
27313;SDS011;14800;48.174;9.798;2024-03-08T02:48:13;34.45;;;19.83;;
27313;SDS011;14800;48.174;9.798;2024-03-08T02:50:39;32.88;;;18.55;;
27313;SDS011;14800;48.174;9.798;2024-03-08T02:53:07;35.42;;;19.45;;
27313;SDS011;14800;48.174;9.798;2024-03-08T02:55:33;34.00;;;19.52;;
27313;SDS011;14800;48.174;9.798;2024-03-08T02:58:00;37.15;;;20.02;;
27313;SDS011;14800;48.174;9.798;2024-03-08T03:00:29;34.10;;;19.17;;
27313;SDS011;14800;48.174;9.798;2024-03-08T03:02:56;32.42;;;19.55;;
27313;SDS011;14800;48.174;9.798;2024-03-08T03:05:22;33.17;;;19.42;;
27313;SDS011;14800;48.174;9.798;2024-03-08T03:07:48;35.00;;;19.65;;
27313;SDS011;14800;48.174;9.798;2024-03-08T03:10:16;34.88;;;19.73;;
27313;SDS011;14800;48.174;9.798;2024-03-08T03:12:42;32.30;;;18.73;;
27313;SDS011;14800;48.174;9.798;2024-03-08T03:15:07;32.70;;;18.88;;
27313;SDS011;14800;48.174;9.798;2024-03-08T03:17:33;32.03;;;19.20;;
27313;SDS011;14800;48.174;9.798;2024-03-08T03:19:59;30.33;;;18.05;;
27313;SDS011;14800;48.174;9.798;2024-03-08T03:22:30;33.55;;;18.77;;
27313;SDS011;14800;48.174;9.798;2024-03-08T03:24:55;33.08;;;19.35;;
27313;SDS011;14800;48.174;9.798;2024-03-08T03:27:23;32.92;;;18.83;;
27313;SDS011;14800;48.174;9.798;2024-03-08T03:29:49;34.17;;;19.77;;
27313;SDS011;14800;48.174;9.798;2024-03-08T03:32:17;34.85;;;20.50;;
27313;SDS011;14800;48.174;9.798;2024-03-08T03:34:43;33.97;;;19.20;;
27313;SDS011;14800;48.174;9.798;2024-03-08T03:37:09;32.40;;;19.27;;
27313;SDS011;14800;48.174;9.798;2024-03-08T03:39:38;34.35;;;19.65;;
27313;SDS011;14800;48.174;9.798;2024-03-08T03:42:22;34.47;;;20.42;;
27313;SDS011;14800;48.174;9.798;2024-03-08T03:44:49;37.75;;;19.58;;
27313;SDS011;14800;48.174;9.798;2024-03-08T03:47:15;34.78;;;19.60;;
27313;SDS011;14800;48.174;9.798;2024-03-08T03:49:41;33.63;;;20.30;;
27313;SDS011;14800;48.174;9.798;2024-03-08T03:52:07;34.72;;;19.70;;
27313;SDS011;14800;48.174;9.798;2024-03-08T03:54:33;35.40;;;20.10;;
27313;SDS011;14800;48.174;9.798;2024-03-08T03:56:59;33.22;;;18.73;;
27313;SDS011;14800;48.174;9.798;2024-03-08T03:59:25;34.50;;;19.35;;
27313;SDS011;14800;48.174;9.798;2024-03-08T04:01:52;36.30;;;21.00;;
27313;SDS011;14800;48.174;9.798;2024-03-08T04:04:18;33.92;;;19.02;;
27313;SDS011;14800;48.174;9.798;2024-03-08T04:06:43;36.90;;;19.88;;
27313;SDS011;14800;48.174;9.798;2024-03-08T04:09:10;37.88;;;19.58;;
27313;SDS011;14800;48.174;9.798;2024-03-08T04:11:36;32.53;;;19.25;;
27313;SDS011;14800;48.174;9.798;2024-03-08T04:14:01;33.13;;;19.50;;
27313;SDS011;14800;48.174;9.798;2024-03-08T04:16:27;32.97;;;18.63;;
27313;SDS011;14800;48.174;9.798;2024-03-08T04:18:53;32.00;;;19.27;;
27313;SDS011;14800;48.174;9.798;2024-03-08T04:21:18;33.47;;;19.48;;
27313;SDS011;14800;48.174;9.798;2024-03-08T04:23:44;35.70;;;19.60;;
27313;SDS011;14800;48.174;9.798;2024-03-08T04:26:10;34.80;;;19.25;;
27313;SDS011;14800;48.174;9.798;2024-03-08T04:28:36;32.13;;;19.15;;
27313;SDS011;14800;48.174;9.798;2024-03-08T04:31:02;34.20;;;19.20;;
27313;SDS011;14800;48.174;9.798;2024-03-08T04:33:28;33.30;;;18.98;;
27313;SDS011;14800;48.174;9.798;2024-03-08T04:35:54;35.33;;;19.70;;
27313;SDS011;14800;48.174;9.798;2024-03-08T04:38:19;35.65;;;19.33;;
27313;SDS011;14800;48.174;9.798;2024-03-08T04:40:45;33.35;;;19.73;;
27313;SDS011;14800;48.174;9.798;2024-03-08T04:43:11;34.45;;;19.38;;
27313;SDS011;14800;48.174;9.798;2024-03-08T04:45:36;33.75;;;19.48;;
27313;SDS011;14800;48.174;9.798;2024-03-08T04:48:02;33.72;;;18.60;;
27313;SDS011;14800;48.174;9.798;2024-03-08T04:50:28;35.65;;;19.20;;
27313;SDS011;14800;48.174;9.798;2024-03-08T04:52:54;33.20;;;19.48;;
27313;SDS011;14800;48.174;9.798;2024-03-08T04:55:20;32.22;;;18.92;;
27313;SDS011;14800;48.174;9.798;2024-03-08T04:57:46;32.95;;;18.75;;
27313;SDS011;14800;48.174;9.798;2024-03-08T05:00:12;33.70;;;19.13;;
27313;SDS011;14800;48.174;9.798;2024-03-08T05:02:39;33.25;;;18.75;;
27313;SDS011;14800;48.174;9.798;2024-03-08T05:05:06;33.85;;;18.75;;
27313;SDS011;14800;48.174;9.798;2024-03-08T05:07:32;33.67;;;18.55;;
27313;SDS011;14800;48.174;9.798;2024-03-08T05:09:58;34.88;;;18.95;;
27313;SDS011;14800;48.174;9.798;2024-03-08T05:12:24;33.10;;;19.67;;
27313;SDS011;14800;48.174;9.798;2024-03-08T05:14:49;34.83;;;19.42;;
27313;SDS011;14800;48.174;9.798;2024-03-08T05:17:15;34.45;;;18.77;;
27313;SDS011;14800;48.174;9.798;2024-03-08T05:19:44;37.35;;;19.92;;
27313;SDS011;14800;48.174;9.798;2024-03-08T05:22:10;34.25;;;18.42;;
27313;SDS011;14800;48.174;9.798;2024-03-08T05:24:35;32.40;;;18.90;;
27313;SDS011;14800;48.174;9.798;2024-03-08T05:27:01;33.88;;;18.88;;
27313;SDS011;14800;48.174;9.798;2024-03-08T05:29:28;33.50;;;19.05;;
27313;SDS011;14800;48.174;9.798;2024-03-08T05:31:54;33.08;;;19.40;;
27313;SDS011;14800;48.174;9.798;2024-03-08T05:34:20;36.92;;;20.08;;
27313;SDS011;14800;48.174;9.798;2024-03-08T05:36:47;33.97;;;19.50;;
27313;SDS011;14800;48.174;9.798;2024-03-08T05:39:14;33.58;;;19.08;;
27313;SDS011;14800;48.174;9.798;2024-03-08T05:41:41;31.30;;;18.15;;
27313;SDS011;14800;48.174;9.798;2024-03-08T05:44:07;33.17;;;19.42;;
27313;SDS011;14800;48.174;9.798;2024-03-08T05:46:33;34.53;;;19.13;;
27313;SDS011;14800;48.174;9.798;2024-03-08T05:48:59;30.73;;;18.27;;
27313;SDS011;14800;48.174;9.798;2024-03-08T05:51:25;35.55;;;19.10;;
27313;SDS011;14800;48.174;9.798;2024-03-08T05:53:53;32.15;;;18.23;;
27313;SDS011;14800;48.174;9.798;2024-03-08T05:56:21;34.08;;;19.20;;
27313;SDS011;14800;48.174;9.798;2024-03-08T05:58:50;32.55;;;19.13;;
27313;SDS011;14800;48.174;9.798;2024-03-08T06:01:15;36.00;;;19.95;;
27313;SDS011;14800;48.174;9.798;2024-03-08T06:03:41;31.90;;;18.13;;
27313;SDS011;14800;48.174;9.798;2024-03-08T06:06:13;34.83;;;18.50;;
27313;SDS011;14800;48.174;9.798;2024-03-08T06:08:40;32.35;;;17.65;;
27313;SDS011;14800;48.174;9.798;2024-03-08T06:11:08;30.77;;;17.80;;
27313;SDS011;14800;48.174;9.798;2024-03-08T06:13:34;30.70;;;17.70;;
27313;SDS011;14800;48.174;9.798;2024-03-08T06:16:00;32.55;;;17.50;;
27313;SDS011;14800;48.174;9.798;2024-03-08T06:18:29;32.90;;;18.50;;
27313;SDS011;14800;48.174;9.798;2024-03-08T06:20:55;34.08;;;18.73;;
27313;SDS011;14800;48.174;9.798;2024-03-08T06:23:21;35.72;;;20.02;;
27313;SDS011;14800;48.174;9.798;2024-03-08T06:25:47;33.10;;;19.13;;
27313;SDS011;14800;48.174;9.798;2024-03-08T06:28:12;31.92;;;17.83;;
27313;SDS011;14800;48.174;9.798;2024-03-08T06:30:39;32.40;;;19.02;;
27313;SDS011;14800;48.174;9.798;2024-03-08T06:33:05;33.63;;;18.77;;
27313;SDS011;14800;48.174;9.798;2024-03-08T06:35:30;35.70;;;19.67;;
27313;SDS011;14800;48.174;9.798;2024-03-08T06:38:00;33.05;;;18.67;;
27313;SDS011;14800;48.174;9.798;2024-03-08T06:40:25;33.75;;;18.17;;
27313;SDS011;14800;48.174;9.798;2024-03-08T06:42:51;35.80;;;19.00;;
27313;SDS011;14800;48.174;9.798;2024-03-08T06:45:17;32.35;;;18.85;;
27313;SDS011;14800;48.174;9.798;2024-03-08T06:47:45;33.30;;;17.88;;
27313;SDS011;14800;48.174;9.798;2024-03-08T06:50:11;32.38;;;18.15;;
27313;SDS011;14800;48.174;9.798;2024-03-08T06:52:37;30.23;;;17.42;;
27313;SDS011;14800;48.174;9.798;2024-03-08T06:55:03;32.03;;;17.88;;
27313;SDS011;14800;48.174;9.798;2024-03-08T06:57:30;30.23;;;17.65;;
27313;SDS011;14800;48.174;9.798;2024-03-08T06:59:56;31.05;;;17.48;;
27313;SDS011;14800;48.174;9.798;2024-03-08T07:02:24;33.22;;;18.58;;
27313;SDS011;14800;48.174;9.798;2024-03-08T07:04:50;32.72;;;18.08;;
27313;SDS011;14800;48.174;9.798;2024-03-08T07:07:17;32.88;;;18.42;;
27313;SDS011;14800;48.174;9.798;2024-03-08T07:09:45;30.02;;;16.98;;
27313;SDS011;14800;48.174;9.798;2024-03-08T07:12:11;31.60;;;17.60;;
27313;SDS011;14800;48.174;9.798;2024-03-08T07:14:38;32.67;;;17.98;;
27313;SDS011;14800;48.174;9.798;2024-03-08T07:17:08;32.80;;;18.25;;
27313;SDS011;14800;48.174;9.798;2024-03-08T07:19:34;30.90;;;18.15;;
27313;SDS011;14800;48.174;9.798;2024-03-08T07:21:59;34.15;;;18.52;;
27313;SDS011;14800;48.174;9.798;2024-03-08T07:24:25;30.55;;;16.80;;
27313;SDS011;14800;48.174;9.798;2024-03-08T07:27:06;29.17;;;16.15;;
27313;SDS011;14800;48.174;9.798;2024-03-08T07:29:32;30.45;;;17.80;;
27313;SDS011;14800;48.174;9.798;2024-03-08T07:31:59;31.90;;;16.92;;
27313;SDS011;14800;48.174;9.798;2024-03-08T07:34:27;29.17;;;16.52;;
27313;SDS011;14800;48.174;9.798;2024-03-08T07:36:56;31.67;;;17.52;;
27313;SDS011;14800;48.174;9.798;2024-03-08T07:39:23;32.63;;;17.25;;
27313;SDS011;14800;48.174;9.798;2024-03-08T07:41:48;31.40;;;17.10;;
27313;SDS011;14800;48.174;9.798;2024-03-08T07:44:17;33.17;;;18.92;;
27313;SDS011;14800;48.174;9.798;2024-03-08T07:46:43;28.02;;;16.23;;
27313;SDS011;14800;48.174;9.798;2024-03-08T07:49:09;32.92;;;17.88;;
27313;SDS011;14800;48.174;9.798;2024-03-08T07:51:36;29.38;;;17.05;;
27313;SDS011;14800;48.174;9.798;2024-03-08T07:54:02;31.73;;;17.52;;
27313;SDS011;14800;48.174;9.798;2024-03-08T07:56:29;30.58;;;16.52;;
27313;SDS011;14800;48.174;9.798;2024-03-08T07:58:55;30.63;;;16.65;;
27313;SDS011;14800;48.174;9.798;2024-03-08T08:01:21;31.92;;;17.45;;
27313;SDS011;14800;48.174;9.798;2024-03-08T08:03:47;30.33;;;16.55;;
27313;SDS011;14800;48.174;9.798;2024-03-08T08:06:16;29.30;;;17.13;;
27313;SDS011;14800;48.174;9.798;2024-03-08T08:08:42;31.00;;;16.63;;
27313;SDS011;14800;48.174;9.798;2024-03-08T08:11:08;27.38;;;15.73;;
27313;SDS011;14800;48.174;9.798;2024-03-08T08:13:34;28.02;;;15.90;;
27313;SDS011;14800;48.174;9.798;2024-03-08T08:16:01;30.60;;;16.73;;
27313;SDS011;14800;48.174;9.798;2024-03-08T08:18:27;29.10;;;16.60;;
27313;SDS011;14800;48.174;9.798;2024-03-08T08:20:54;31.00;;;16.80;;
27313;SDS011;14800;48.174;9.798;2024-03-08T08:23:20;29.27;;;15.48;;
27313;SDS011;14800;48.174;9.798;2024-03-08T08:25:46;29.80;;;16.15;;
27313;SDS011;14800;48.174;9.798;2024-03-08T08:28:15;31.15;;;16.52;;
27313;SDS011;14800;48.174;9.798;2024-03-08T08:30:44;29.35;;;16.30;;
27313;SDS011;14800;48.174;9.798;2024-03-08T08:33:10;29.88;;;16.85;;
27313;SDS011;14800;48.174;9.798;2024-03-08T08:35:38;29.95;;;16.65;;
27313;SDS011;14800;48.174;9.798;2024-03-08T08:38:04;30.25;;;16.42;;
27313;SDS011;14800;48.174;9.798;2024-03-08T08:40:30;26.10;;;14.85;;
27313;SDS011;14800;48.174;9.798;2024-03-08T08:42:57;30.15;;;16.48;;
27313;SDS011;14800;48.174;9.798;2024-03-08T08:45:23;28.90;;;16.20;;
27313;SDS011;14800;48.174;9.798;2024-03-08T08:47:48;27.48;;;15.05;;
27313;SDS011;14800;48.174;9.798;2024-03-08T08:50:14;29.80;;;15.93;;
27313;SDS011;14800;48.174;9.798;2024-03-08T08:52:41;27.52;;;15.60;;
27313;SDS011;14800;48.174;9.798;2024-03-08T08:55:09;24.80;;;14.20;;
27313;SDS011;14800;48.174;9.798;2024-03-08T08:57:39;24.38;;;14.68;;
27313;SDS011;14800;48.174;9.798;2024-03-08T09:00:05;27.40;;;15.02;;
27313;SDS011;14800;48.174;9.798;2024-03-08T09:02:39;27.23;;;15.07;;
27313;SDS011;14800;48.174;9.798;2024-03-08T09:05:06;23.92;;;14.48;;
27313;SDS011;14800;48.174;9.798;2024-03-08T09:07:32;26.25;;;14.80;;
27313;SDS011;14800;48.174;9.798;2024-03-08T09:09:59;27.65;;;15.13;;
27313;SDS011;14800;48.174;9.798;2024-03-08T09:12:27;27.75;;;15.02;;
27313;SDS011;14800;48.174;9.798;2024-03-08T09:14:53;26.52;;;14.68;;
27313;SDS011;14800;48.174;9.798;2024-03-08T09:17:18;25.42;;;14.60;;
27313;SDS011;14800;48.174;9.798;2024-03-08T09:19:47;26.70;;;14.82;;
27313;SDS011;14800;48.174;9.798;2024-03-08T09:22:13;26.58;;;13.90;;
27313;SDS011;14800;48.174;9.798;2024-03-08T09:24:38;26.25;;;14.82;;
27313;SDS011;14800;48.174;9.798;2024-03-08T09:27:04;26.83;;;14.35;;
27313;SDS011;14800;48.174;9.798;2024-03-08T09:29:30;25.65;;;14.57;;
27313;SDS011;14800;48.174;9.798;2024-03-08T09:31:55;26.85;;;14.57;;
27313;SDS011;14800;48.174;9.798;2024-03-08T09:34:21;27.27;;;14.23;;
27313;SDS011;14800;48.174;9.798;2024-03-08T09:36:47;26.63;;;15.18;;
27313;SDS011;14800;48.174;9.798;2024-03-08T09:39:12;25.42;;;15.00;;
27313;SDS011;14800;48.174;9.798;2024-03-08T09:41:45;24.58;;;14.30;;
27313;SDS011;14800;48.174;9.798;2024-03-08T09:44:14;23.33;;;14.10;;
27313;SDS011;14800;48.174;9.798;2024-03-08T09:46:41;25.02;;;13.85;;
27313;SDS011;14800;48.174;9.798;2024-03-08T09:49:07;25.60;;;14.27;;
27313;SDS011;14800;48.174;9.798;2024-03-08T09:51:33;25.65;;;13.93;;
27313;SDS011;14800;48.174;9.798;2024-03-08T09:54:00;25.88;;;14.20;;
27313;SDS011;14800;48.174;9.798;2024-03-08T09:56:29;26.08;;;15.05;;
27313;SDS011;14800;48.174;9.798;2024-03-08T09:59:00;26.13;;;14.40;;
27313;SDS011;14800;48.174;9.798;2024-03-08T10:01:44;27.80;;;14.77;;
27313;SDS011;14800;48.174;9.798;2024-03-08T10:04:10;28.50;;;15.15;;
27313;SDS011;14800;48.174;9.798;2024-03-08T10:06:37;26.42;;;15.55;;
27313;SDS011;14800;48.174;9.798;2024-03-08T10:09:02;27.83;;;15.63;;
27313;SDS011;14800;48.174;9.798;2024-03-08T10:11:29;28.30;;;15.70;;
27313;SDS011;14800;48.174;9.798;2024-03-08T10:13:55;28.20;;;15.68;;
27313;SDS011;14800;48.174;9.798;2024-03-08T10:16:21;27.83;;;15.52;;
27313;SDS011;14800;48.174;9.798;2024-03-08T10:18:49;31.15;;;16.00;;
27313;SDS011;14800;48.174;9.798;2024-03-08T10:21:14;26.63;;;15.05;;
27313;SDS011;14800;48.174;9.798;2024-03-08T10:23:40;25.38;;;14.75;;
27313;SDS011;14800;48.174;9.798;2024-03-08T10:26:11;25.13;;;15.32;;
27313;SDS011;14800;48.174;9.798;2024-03-08T10:28:39;25.40;;;14.13;;
27313;SDS011;14800;48.174;9.798;2024-03-08T10:31:16;25.88;;;14.93;;
27313;SDS011;14800;48.174;9.798;2024-03-08T10:33:42;24.55;;;14.45;;
27313;SDS011;14800;48.174;9.798;2024-03-08T10:36:09;26.08;;;14.10;;
27313;SDS011;14800;48.174;9.798;2024-03-08T10:38:39;23.48;;;13.57;;
27313;SDS011;14800;48.174;9.798;2024-03-08T10:41:06;26.15;;;14.80;;
27313;SDS011;14800;48.174;9.798;2024-03-08T10:43:48;25.17;;;14.82;;
27313;SDS011;14800;48.174;9.798;2024-03-08T10:46:43;24.25;;;14.05;;
27313;SDS011;14800;48.174;9.798;2024-03-08T10:49:12;25.83;;;14.88;;
27313;SDS011;14800;48.174;9.798;2024-03-08T10:51:45;24.92;;;13.70;;
27313;SDS011;14800;48.174;9.798;2024-03-08T10:54:13;25.52;;;14.30;;
27313;SDS011;14800;48.174;9.798;2024-03-08T10:56:40;24.67;;;14.60;;
27313;SDS011;14800;48.174;9.798;2024-03-08T10:59:07;25.02;;;13.98;;
27313;SDS011;14800;48.174;9.798;2024-03-08T11:01:33;24.33;;;13.98;;
27313;SDS011;14800;48.174;9.798;2024-03-08T11:03:59;23.75;;;13.82;;
27313;SDS011;14800;48.174;9.798;2024-03-08T11:06:30;24.20;;;14.57;;
27313;SDS011;14800;48.174;9.798;2024-03-08T11:08:57;25.38;;;13.75;;
27313;SDS011;14800;48.174;9.798;2024-03-08T11:11:24;25.40;;;14.57;;
27313;SDS011;14800;48.174;9.798;2024-03-08T11:13:56;22.90;;;13.65;;
27313;SDS011;14800;48.174;9.798;2024-03-08T11:19:52;22.85;;;13.60;;
27313;SDS011;14800;48.174;9.798;2024-03-08T11:21:56;24.67;;;13.75;;
27313;SDS011;14800;48.174;9.798;2024-03-08T11:24:22;24.17;;;13.88;;
27313;SDS011;14800;48.174;9.798;2024-03-08T11:26:48;26.45;;;14.15;;
27313;SDS011;14800;48.174;9.798;2024-03-08T11:34:37;24.05;;;13.93;;
27313;SDS011;14800;48.174;9.798;2024-03-08T11:37:05;24.52;;;14.57;;
27313;SDS011;14800;48.174;9.798;2024-03-08T11:39:38;23.30;;;13.48;;
27313;SDS011;14800;48.174;9.798;2024-03-08T11:42:05;23.52;;;13.65;;
27313;SDS011;14800;48.174;9.798;2024-03-08T11:44:31;23.00;;;13.55;;
27313;SDS011;14800;48.174;9.798;2024-03-08T11:46:57;23.33;;;14.40;;
27313;SDS011;14800;48.174;9.798;2024-03-08T11:49:23;22.48;;;13.63;;
27313;SDS011;14800;48.174;9.798;2024-03-08T11:51:51;25.33;;;13.75;;
27313;SDS011;14800;48.174;9.798;2024-03-08T11:54:18;24.00;;;14.18;;
27313;SDS011;14800;48.174;9.798;2024-03-08T11:56:44;26.55;;;13.90;;
27313;SDS011;14800;48.174;9.798;2024-03-08T11:59:12;23.42;;;13.93;;
27313;SDS011;14800;48.174;9.798;2024-03-08T12:01:38;22.65;;;13.95;;
27313;SDS011;14800;48.174;9.798;2024-03-08T12:04:04;24.25;;;14.25;;
27313;SDS011;14800;48.174;9.798;2024-03-08T12:06:40;22.38;;;13.98;;
27313;SDS011;14800;48.174;9.798;2024-03-08T12:09:09;23.58;;;13.98;;
27313;SDS011;14800;48.174;9.798;2024-03-08T12:11:39;25.05;;;14.85;;
27313;SDS011;14800;48.174;9.798;2024-03-08T12:14:06;25.45;;;14.98;;
27313;SDS011;14800;48.174;9.798;2024-03-08T12:16:36;24.13;;;14.23;;
27313;SDS011;14800;48.174;9.798;2024-03-08T12:19:02;24.30;;;14.38;;
27313;SDS011;14800;48.174;9.798;2024-03-08T12:21:30;26.52;;;15.13;;
27313;SDS011;14800;48.174;9.798;2024-03-08T12:24:07;24.85;;;14.48;;
27313;SDS011;14800;48.174;9.798;2024-03-08T12:26:38;24.98;;;15.10;;
27313;SDS011;14800;48.174;9.798;2024-03-08T12:29:15;26.50;;;14.98;;
27313;SDS011;14800;48.174;9.798;2024-03-08T12:31:42;23.27;;;14.25;;
27313;SDS011;14800;48.174;9.798;2024-03-08T12:34:08;26.08;;;14.32;;
27313;SDS011;14800;48.174;9.798;2024-03-08T12:36:35;23.80;;;15.05;;
27313;SDS011;14800;48.174;9.798;2024-03-08T12:39:05;22.80;;;13.90;;
27313;SDS011;14800;48.174;9.798;2024-03-08T12:41:38;25.02;;;14.88;;
27313;SDS011;14800;48.174;9.798;2024-03-08T12:44:05;23.17;;;14.65;;
27313;SDS011;14800;48.174;9.798;2024-03-08T12:46:36;24.92;;;15.30;;
27313;SDS011;14800;48.174;9.798;2024-03-08T12:49:05;24.02;;;14.30;;
27313;SDS011;14800;48.174;9.798;2024-03-08T12:51:32;23.02;;;14.38;;
27313;SDS011;14800;48.174;9.798;2024-03-08T12:53:58;24.27;;;14.60;;
27313;SDS011;14800;48.174;9.798;2024-03-08T12:56:30;24.38;;;14.45;;
27313;SDS011;14800;48.174;9.798;2024-03-08T12:58:58;22.10;;;13.40;;
27313;SDS011;14800;48.174;9.798;2024-03-08T13:01:27;24.83;;;14.20;;
27313;SDS011;14800;48.174;9.798;2024-03-08T13:03:54;21.75;;;14.13;;
27313;SDS011;14800;48.174;9.798;2024-03-08T13:06:23;23.65;;;14.90;;
27313;SDS011;14800;48.174;9.798;2024-03-08T13:08:49;23.15;;;14.15;;
27313;SDS011;14800;48.174;9.798;2024-03-08T13:11:16;21.30;;;13.65;;
27313;SDS011;14800;48.174;9.798;2024-03-08T13:13:42;24.90;;;14.43;;
27313;SDS011;14800;48.174;9.798;2024-03-08T13:16:09;22.42;;;13.93;;
27313;SDS011;14800;48.174;9.798;2024-03-08T13:18:36;23.60;;;14.25;;
27313;SDS011;14800;48.174;9.798;2024-03-08T13:21:02;21.35;;;13.50;;
27313;SDS011;14800;48.174;9.798;2024-03-08T13:23:35;21.90;;;14.05;;
27313;SDS011;14800;48.174;9.798;2024-03-08T13:26:06;22.75;;;14.07;;
27313;SDS011;14800;48.174;9.798;2024-03-08T13:28:40;23.63;;;13.05;;
27313;SDS011;14800;48.174;9.798;2024-03-08T13:31:10;23.38;;;13.95;;
27313;SDS011;14800;48.174;9.798;2024-03-08T13:33:35;22.05;;;13.68;;
27313;SDS011;14800;48.174;9.798;2024-03-08T13:36:02;22.80;;;14.00;;
27313;SDS011;14800;48.174;9.798;2024-03-08T13:38:29;21.42;;;13.43;;
27313;SDS011;14800;48.174;9.798;2024-03-08T13:40:57;19.50;;;13.07;;
27313;SDS011;14800;48.174;9.798;2024-03-08T13:43:23;20.02;;;13.20;;
27313;SDS011;14800;48.174;9.798;2024-03-08T13:45:49;21.17;;;14.18;;
27313;SDS011;14800;48.174;9.798;2024-03-08T13:48:15;22.83;;;13.77;;
27313;SDS011;14800;48.174;9.798;2024-03-08T13:50:41;21.15;;;13.45;;
27313;SDS011;14800;48.174;9.798;2024-03-08T13:53:06;20.85;;;14.00;;
27313;SDS011;14800;48.174;9.798;2024-03-08T13:55:35;21.08;;;13.68;;
27313;SDS011;14800;48.174;9.798;2024-03-08T13:58:00;21.48;;;13.18;;
27313;SDS011;14800;48.174;9.798;2024-03-08T14:00:27;23.80;;;13.75;;
27313;SDS011;14800;48.174;9.798;2024-03-08T14:02:58;19.40;;;13.38;;
27313;SDS011;14800;48.174;9.798;2024-03-08T14:05:24;20.35;;;13.02;;
27313;SDS011;14800;48.174;9.798;2024-03-08T14:07:49;21.88;;;13.50;;
27313;SDS011;14800;48.174;9.798;2024-03-08T14:10:15;21.88;;;14.30;;
27313;SDS011;14800;48.174;9.798;2024-03-08T14:12:42;19.35;;;13.25;;
27313;SDS011;14800;48.174;9.798;2024-03-08T14:15:09;21.05;;;13.80;;
27313;SDS011;14800;48.174;9.798;2024-03-08T14:17:36;20.02;;;13.70;;
27313;SDS011;14800;48.174;9.798;2024-03-08T14:20:02;21.48;;;13.35;;
27313;SDS011;14800;48.174;9.798;2024-03-08T14:22:28;20.73;;;13.32;;
27313;SDS011;14800;48.174;9.798;2024-03-08T14:24:56;20.50;;;13.07;;
27313;SDS011;14800;48.174;9.798;2024-03-08T14:27:22;20.52;;;13.70;;
27313;SDS011;14800;48.174;9.798;2024-03-08T14:29:47;20.50;;;13.50;;